Aérodrome :
LOGIN :

S'inscrire | Disclaimer

   EN    FR    IT 

 










Légende :    VFR   VFR Marginal   IFR   IFR Intensif   IFR Très Intensif
Visi : 
Plafond : 
>= 8 km
>= 3000ft
5 à 8 km
1000 à 3000 ft
1500m à 5 km
500 à 1000 ft
800 à 1500m
200 à 500 ft
< 800m
< 200 ft
Symboles :   Orages  Brouillard  Fortes neiges  Fortes précipitations  Vent > 20 kt
SIGMETs :   Divers  Orages  Givrage  Turbulence  Onde Orograph.  Cendres Volcan.







- Altitude de l'aérodrome : 529 ft
- Code IATA : CHR
- Voir les cartes d'approche


LFLX - Chateauroux

DERNIER METAR :
  • 211330Z AUTO 02010KT 350V080 CAVOK 17/M01 Q1030 NOSIG

METARs EXPIRÉS :
  • 211300Z AUTO 02011KT 360V060 CAVOK 16/M02 Q1030 NOSIG
  • 211230Z AUTO 04008KT 010V070 CAVOK 15/M02 Q1030 NOSIG
  • 211200Z AUTO 04010KT 360V060 CAVOK 15/00 Q1031 NOSIG
  • 211130Z AUTO 06009KT 030V090 CAVOK 14/00 Q1031 NOSIG
  • 211100Z AUTO 06009KT 040V100 CAVOK 13/01 Q1031 NOSIG
  • 211030Z AUTO 06010KT CAVOK 13/01 Q1031 NOSIG

TAF TAF LFLX
Valide du 21 à 12h jusqu'au 22 à 18h UTC


211100Z 2112/2218 05008KT CAVOK
TEMPO 2200/2208 2000 MIFG
PROB30
TEMPO 2202/2207 VRB02KT 0400 FG VV///
BECMG 2210/2212 20006KT
Pas de NOTAMs connus pour ce terrain.



MET'MAP, la Météo Aéronautique d'un coup d'oeil ! - Copyright ORBIFLY Décembre 2007 - Disclaimer

ORBIFLY MET'MAP TEAM :

Programmation & Développement : Alexandra Zaïnal
Conception & Développement : Baudouin d'Aumeries
Co-Programmation & Développement : Marc-Olivier Méhu
Soutien technique & logistique : Manuel Goepfert

Contact : metmap@orbifly.com




SOURCES & CREDITS :

   NOAA